This is the latest recevied weather packets stored in our database for station/object F5IOR-13. If no packets are shown the sender has not sent any weather packets the latest 10 day(s).
| Time | Temp. | Humidity | Pressure | Rain* | Wind** | Luminosity | Snow |
|---|---|---|---|---|---|---|---|
| 1777367453 | 14.44° C | 66% | 986.5 hPa | 0 mm | - | - | - |
| 1777366223 | 13.89° C | 66% | 986.4 hPa | 0 mm | - | - | - |
| 1777365263 | 13.33° C | 67% | 986.4 hPa | 0 mm | - | - | - |
| 1777364783 | 13.33° C | 67% | 986.4 hPa | 0 mm | - | - | - |
| 1777364303 | 13.33° C | 67% | 986.4 hPa | 0 mm | - | - | - |
| 1777363823 | 12.78° C | 69% | 986.4 hPa | 0 mm | - | - | - |
| 1777363343 | 12.78° C | 69% | 986.4 hPa | 0 mm | - | - | - |
| 1777363102 | 12.22° C | 72% | 986.5 hPa | 0 mm | - | - | - |
| 1777362863 | 12.22° C | 72% | 986.5 hPa | 0 mm | - | - | - |
| 1777362623 | 12.22° C | 72% | 986.5 hPa | 0 mm | - | - | - |
| 1777362383 | 12.22° C | 72% | 986.5 hPa | 0 mm | - | - | - |
| 1777362263 | 12.22° C | 72% | 986.5 hPa | 0 mm | - | - | - |
| 1777362143 | 12.22° C | 72% | 986.5 hPa | 0 mm | - | - | - |
| 1777362022 | 12.22° C | 72% | 986.5 hPa | 0 mm | - | - | - |
| 1777361903 | 12.22° C | 72% | 986.5 hPa | 0 mm | - | - | - |
| 1777361843 | 12.22° C | 72% | 986.5 hPa | 0 mm | - | - | - |
| 1777361783 | 12.22° C | 72% | 986.5 hPa | 0 mm | - | - | - |
| 1777361723 | 12.22° C | 72% | 986.5 hPa | 0 mm | - | - | - |
| 1777316904 | 16.11° C | 55% | 988 hPa | 0 mm | - | - | - |
| 1777315104 | 18.89° C | 46% | 988 hPa | 0 mm | - | - | - |
| 1777313303 | 20° C | 41% | 988 hPa | 0 mm | - | - | - |
| 1777311504 | 21.11° C | 36% | 988.3 hPa | 0 mm | - | - | - |
| 1777309704 | 21.67° C | 32% | 988.6 hPa | 0 mm | - | - | - |
| 1777307904 | 22.78° C | 23% | 988.8 hPa | 0 mm | - | - | - |
| 1777306104 | 22.78° C | 23% | 989 hPa | 0 mm | - | - | - |
* Rain latest hour (hover to see other rain measurements)
** Current wind speed in m/s (hover to see current wind gust speed)